sensor_id;sensor_type;location;lat;lon;timestamp;P1;durP1;ratioP1;P2;durP2;ratioP2
77430;SDS011;66498;48.564;19.272;2023-01-01T00:00:08;171.98;;;36.47;;
77430;SDS011;66498;48.564;19.272;2023-01-01T00:02:34;174.68;;;37.45;;
77430;SDS011;66498;48.564;19.272;2023-01-01T00:05:00;199.45;;;42.30;;
77430;SDS011;66498;48.564;19.272;2023-01-01T00:07:25;290.45;;;49.30;;
77430;SDS011;66498;48.564;19.272;2023-01-01T00:09:51;332.27;;;52.75;;
77430;SDS011;66498;48.564;19.272;2023-01-01T00:12:35;277.55;;;58.53;;
77430;SDS011;66498;48.564;19.272;2023-01-01T00:15:00;427.02;;;72.45;;
77430;SDS011;66498;48.564;19.272;2023-01-01T00:17:27;350.40;;;70.93;;
77430;SDS011;66498;48.564;19.272;2023-01-01T00:19:53;315.75;;;88.38;;
77430;SDS011;66498;48.564;19.272;2023-01-01T00:22:18;429.63;;;94.22;;
77430;SDS011;66498;48.564;19.272;2023-01-01T00:24:44;470.88;;;103.57;;
77430;SDS011;66498;48.564;19.272;2023-01-01T00:27:09;252.68;;;87.75;;
77430;SDS011;66498;48.564;19.272;2023-01-01T00:29:35;263.92;;;73.18;;
77430;SDS011;66498;48.564;19.272;2023-01-01T00:32:00;163.55;;;52.92;;
77430;SDS011;66498;48.564;19.272;2023-01-01T00:34:26;191.05;;;43.05;;
77430;SDS011;66498;48.564;19.272;2023-01-01T00:36:51;94.18;;;38.92;;
77430;SDS011;66498;48.564;19.272;2023-01-01T00:39:17;153.50;;;38.97;;
77430;SDS011;66498;48.564;19.272;2023-01-01T00:41:42;107.00;;;38.45;;
77430;SDS011;66498;48.564;19.272;2023-01-01T00:44:08;111.57;;;38.88;;
77430;SDS011;66498;48.564;19.272;2023-01-01T00:46:33;117.75;;;39.08;;
77430;SDS011;66498;48.564;19.272;2023-01-01T00:48:59;156.10;;;43.42;;
77430;SDS011;66498;48.564;19.272;2023-01-01T00:51:25;129.90;;;40.70;;
77430;SDS011;66498;48.564;19.272;2023-01-01T00:53:50;130.82;;;44.97;;
77430;SDS011;66498;48.564;19.272;2023-01-01T00:56:16;87.53;;;39.13;;
77430;SDS011;66498;48.564;19.272;2023-01-01T00:58:41;212.13;;;47.05;;
77430;SDS011;66498;48.564;19.272;2023-01-01T01:01:07;141.57;;;45.17;;
77430;SDS011;66498;48.564;19.272;2023-01-01T01:03:32;177.23;;;47.53;;
77430;SDS011;66498;48.564;19.272;2023-01-01T01:05:59;143.32;;;49.80;;
77430;SDS011;66498;48.564;19.272;2023-01-01T01:08:33;131.65;;;49.22;;
77430;SDS011;66498;48.564;19.272;2023-01-01T01:11:04;152.57;;;46.05;;
77430;SDS011;66498;48.564;19.272;2023-01-01T01:13:31;116.10;;;45.15;;
77430;SDS011;66498;48.564;19.272;2023-01-01T01:15:57;140.10;;;46.25;;
77430;SDS011;66498;48.564;19.272;2023-01-01T01:18:22;170.60;;;48.97;;
77430;SDS011;66498;48.564;19.272;2023-01-01T01:20:52;174.23;;;47.10;;
77430;SDS011;66498;48.564;19.272;2023-01-01T01:23:18;151.48;;;44.38;;
77430;SDS011;66498;48.564;19.272;2023-01-01T01:25:44;148.18;;;44.22;;
77430;SDS011;66498;48.564;19.272;2023-01-01T01:28:10;131.75;;;45.67;;
77430;SDS011;66498;48.564;19.272;2023-01-01T01:30:36;115.07;;;43.45;;
77430;SDS011;66498;48.564;19.272;2023-01-01T01:33:02;127.88;;;44.38;;
77430;SDS011;66498;48.564;19.272;2023-01-01T01:35:28;163.63;;;46.13;;
77430;SDS011;66498;48.564;19.272;2023-01-01T01:37:54;146.13;;;44.65;;
77430;SDS011;66498;48.564;19.272;2023-01-01T01:40:20;113.25;;;42.50;;
77430;SDS011;66498;48.564;19.272;2023-01-01T01:42:46;116.32;;;43.03;;
77430;SDS011;66498;48.564;19.272;2023-01-01T01:45:12;132.00;;;42.42;;
77430;SDS011;66498;48.564;19.272;2023-01-01T01:50:24;149.32;;;43.85;;
77430;SDS011;66498;48.564;19.272;2023-01-01T01:52:59;149.35;;;43.40;;
77430;SDS011;66498;48.564;19.272;2023-01-01T01:55:37;148.25;;;39.05;;
77430;SDS011;66498;48.564;19.272;2023-01-01T01:58:08;106.97;;;37.60;;
77430;SDS011;66498;48.564;19.272;2023-01-01T02:00:37;91.80;;;37.70;;
77430;SDS011;66498;48.564;19.272;2023-01-01T02:03:04;108.60;;;36.00;;
77430;SDS011;66498;48.564;19.272;2023-01-01T02:05:32;150.20;;;35.15;;
77430;SDS011;66498;48.564;19.272;2023-01-01T02:07:59;128.35;;;34.60;;
77430;SDS011;66498;48.564;19.272;2023-01-01T02:10:26;147.35;;;33.15;;
77430;SDS011;66498;48.564;19.272;2023-01-01T02:12:52;164.23;;;39.33;;
77430;SDS011;66498;48.564;19.272;2023-01-01T02:15:18;150.80;;;42.28;;
77430;SDS011;66498;48.564;19.272;2023-01-01T02:18:05;110.03;;;33.85;;
77430;SDS011;66498;48.564;19.272;2023-01-01T02:20:47;81.80;;;35.45;;
77430;SDS011;66498;48.564;19.272;2023-01-01T02:24:10;156.20;;;33.17;;
77430;SDS011;66498;48.564;19.272;2023-01-01T02:31:43;84.63;;;34.72;;
77430;SDS011;66498;48.564;19.272;2023-01-01T02:34:13;90.07;;;34.65;;
77430;SDS011;66498;48.564;19.272;2023-01-01T02:36:47;94.70;;;34.22;;
77430;SDS011;66498;48.564;19.272;2023-01-01T02:39:15;82.97;;;33.65;;
77430;SDS011;66498;48.564;19.272;2023-01-01T02:41:44;85.38;;;33.95;;
77430;SDS011;66498;48.564;19.272;2023-01-01T02:44:14;62.75;;;31.58;;
77430;SDS011;66498;48.564;19.272;2023-01-01T02:46:42;153.80;;;32.03;;
77430;SDS011;66498;48.564;19.272;2023-01-01T02:49:08;110.40;;;32.88;;
77430;SDS011;66498;48.564;19.272;2023-01-01T02:55:04;183.20;;;33.45;;
77430;SDS011;66498;48.564;19.272;2023-01-01T02:57:40;113.68;;;35.55;;
77430;SDS011;66498;48.564;19.272;2023-01-01T03:00:13;163.15;;;32.83;;
77430;SDS011;66498;48.564;19.272;2023-01-01T03:12:37;102.93;;;34.15;;
77430;SDS011;66498;48.564;19.272;2023-01-01T03:19:45;111.65;;;35.17;;
77430;SDS011;66498;48.564;19.272;2023-01-01T03:22:16;112.00;;;33.40;;
77430;SDS011;66498;48.564;19.272;2023-01-01T03:24:52;265.30;;;35.55;;
77430;SDS011;66498;48.564;19.272;2023-01-01T03:27:27;210.93;;;33.20;;
77430;SDS011;66498;48.564;19.272;2023-01-01T03:29:56;155.88;;;30.13;;
77430;SDS011;66498;48.564;19.272;2023-01-01T03:32:34;116.72;;;29.17;;
77430;SDS011;66498;48.564;19.272;2023-01-01T03:35:23;100.00;;;30.45;;
77430;SDS011;66498;48.564;19.272;2023-01-01T03:38:03;122.95;;;34.03;;
77430;SDS011;66498;48.564;19.272;2023-01-01T03:40:35;92.15;;;29.33;;
77430;SDS011;66498;48.564;19.272;2023-01-01T03:43:05;96.65;;;29.50;;
77430;SDS011;66498;48.564;19.272;2023-01-01T03:45:36;115.07;;;30.45;;
77430;SDS011;66498;48.564;19.272;2023-01-01T03:48:05;125.57;;;34.35;;
77430;SDS011;66498;48.564;19.272;2023-01-01T03:50:35;98.75;;;32.70;;
77430;SDS011;66498;48.564;19.272;2023-01-01T03:53:18;118.47;;;26.75;;
77430;SDS011;66498;48.564;19.272;2023-01-01T03:55:55;122.70;;;27.10;;
77430;SDS011;66498;48.564;19.272;2023-01-01T03:58:47;117.38;;;28.00;;
77430;SDS011;66498;48.564;19.272;2023-01-01T04:01:36;84.47;;;27.15;;
77430;SDS011;66498;48.564;19.272;2023-01-01T04:04:07;101.45;;;27.00;;
77430;SDS011;66498;48.564;19.272;2023-01-01T04:06:32;108.47;;;27.67;;
77430;SDS011;66498;48.564;19.272;2023-01-01T04:08:58;101.45;;;25.70;;
77430;SDS011;66498;48.564;19.272;2023-01-01T04:11:27;57.35;;;22.10;;
77430;SDS011;66498;48.564;19.272;2023-01-01T04:14:13;77.78;;;25.45;;
77430;SDS011;66498;48.564;19.272;2023-01-01T04:16:54;82.25;;;28.08;;
77430;SDS011;66498;48.564;19.272;2023-01-01T04:19:20;84.10;;;29.83;;
77430;SDS011;66498;48.564;19.272;2023-01-01T04:21:46;109.88;;;30.73;;
77430;SDS011;66498;48.564;19.272;2023-01-01T04:24:11;93.15;;;33.10;;
77430;SDS011;66498;48.564;19.272;2023-01-01T04:26:37;165.20;;;30.15;;
77430;SDS011;66498;48.564;19.272;2023-01-01T04:29:02;195.02;;;33.10;;
77430;SDS011;66498;48.564;19.272;2023-01-01T04:31:27;207.68;;;33.53;;
77430;SDS011;66498;48.564;19.272;2023-01-01T04:33:53;154.20;;;34.95;;
77430;SDS011;66498;48.564;19.272;2023-01-01T04:36:18;115.95;;;34.30;;
77430;SDS011;66498;48.564;19.272;2023-01-01T04:38:44;109.30;;;32.38;;
77430;SDS011;66498;48.564;19.272;2023-01-01T04:41:09;113.15;;;34.88;;
77430;SDS011;66498;48.564;19.272;2023-01-01T04:43:35;136.85;;;32.45;;
77430;SDS011;66498;48.564;19.272;2023-01-01T04:46:01;126.05;;;32.60;;
77430;SDS011;66498;48.564;19.272;2023-01-01T04:48:28;118.35;;;32.80;;
77430;SDS011;66498;48.564;19.272;2023-01-01T04:50:56;95.28;;;28.45;;
77430;SDS011;66498;48.564;19.272;2023-01-01T04:53:23;67.78;;;24.77;;
77430;SDS011;66498;48.564;19.272;2023-01-01T04:55:49;76.28;;;24.95;;
77430;SDS011;66498;48.564;19.272;2023-01-01T04:58:15;167.65;;;31.75;;
77430;SDS011;66498;48.564;19.272;2023-01-01T05:00:40;71.68;;;26.90;;
77430;SDS011;66498;48.564;19.272;2023-01-01T05:03:06;87.05;;;27.48;;
77430;SDS011;66498;48.564;19.272;2023-01-01T05:05:31;84.80;;;28.33;;
77430;SDS011;66498;48.564;19.272;2023-01-01T05:07:57;94.65;;;31.13;;
77430;SDS011;66498;48.564;19.272;2023-01-01T05:10:23;110.97;;;37.88;;
77430;SDS011;66498;48.564;19.272;2023-01-01T05:12:49;151.65;;;40.15;;
77430;SDS011;66498;48.564;19.272;2023-01-01T05:15:14;151.32;;;36.55;;
77430;SDS011;66498;48.564;19.272;2023-01-01T05:17:40;105.88;;;32.60;;
77430;SDS011;66498;48.564;19.272;2023-01-01T05:20:05;118.40;;;36.08;;
77430;SDS011;66498;48.564;19.272;2023-01-01T05:22:31;216.43;;;37.60;;
77430;SDS011;66498;48.564;19.272;2023-01-01T05:24:57;140.50;;;32.97;;
77430;SDS011;66498;48.564;19.272;2023-01-01T05:27:22;97.10;;;29.27;;
77430;SDS011;66498;48.564;19.272;2023-01-01T05:29:48;117.97;;;32.47;;
77430;SDS011;66498;48.564;19.272;2023-01-01T05:32:13;136.50;;;31.63;;
77430;SDS011;66498;48.564;19.272;2023-01-01T05:34:39;166.85;;;33.92;;
77430;SDS011;66498;48.564;19.272;2023-01-01T05:37:04;146.35;;;34.03;;
77430;SDS011;66498;48.564;19.272;2023-01-01T05:39:29;91.82;;;29.45;;
77430;SDS011;66498;48.564;19.272;2023-01-01T05:41:55;83.40;;;28.40;;
77430;SDS011;66498;48.564;19.272;2023-01-01T05:44:21;118.68;;;28.65;;
77430;SDS011;66498;48.564;19.272;2023-01-01T05:46:47;111.13;;;31.05;;
77430;SDS011;66498;48.564;19.272;2023-01-01T05:49:13;74.90;;;30.05;;
77430;SDS011;66498;48.564;19.272;2023-01-01T05:51:38;145.27;;;31.63;;
77430;SDS011;66498;48.564;19.272;2023-01-01T05:54:04;141.50;;;35.15;;
77430;SDS011;66498;48.564;19.272;2023-01-01T05:56:30;98.90;;;37.60;;
77430;SDS011;66498;48.564;19.272;2023-01-01T05:58:55;167.02;;;39.65;;
77430;SDS011;66498;48.564;19.272;2023-01-01T06:01:22;146.32;;;35.38;;
77430;SDS011;66498;48.564;19.272;2023-01-01T06:03:49;117.57;;;34.05;;
77430;SDS011;66498;48.564;19.272;2023-01-01T06:06:17;164.20;;;35.55;;
77430;SDS011;66498;48.564;19.272;2023-01-01T06:08:50;107.40;;;31.08;;
77430;SDS011;66498;48.564;19.272;2023-01-01T06:11:17;75.28;;;27.38;;
77430;SDS011;66498;48.564;19.272;2023-01-01T06:13:44;94.43;;;29.05;;
77430;SDS011;66498;48.564;19.272;2023-01-01T06:16:10;125.35;;;29.08;;
77430;SDS011;66498;48.564;19.272;2023-01-01T06:18:36;130.80;;;29.77;;
77430;SDS011;66498;48.564;19.272;2023-01-01T06:21:05;140.45;;;31.67;;
77430;SDS011;66498;48.564;19.272;2023-01-01T06:23:33;148.23;;;37.17;;
77430;SDS011;66498;48.564;19.272;2023-01-01T06:26:08;126.20;;;36.47;;
77430;SDS011;66498;48.564;19.272;2023-01-01T06:28:36;114.75;;;33.30;;
77430;SDS011;66498;48.564;19.272;2023-01-01T06:31:03;182.73;;;36.92;;
77430;SDS011;66498;48.564;19.272;2023-01-01T06:33:31;151.93;;;37.85;;
77430;SDS011;66498;48.564;19.272;2023-01-01T06:35:57;134.15;;;36.25;;
77430;SDS011;66498;48.564;19.272;2023-01-01T06:38:22;105.75;;;37.80;;
77430;SDS011;66498;48.564;19.272;2023-01-01T06:40:54;111.65;;;35.30;;
77430;SDS011;66498;48.564;19.272;2023-01-01T06:43:21;121.85;;;36.28;;
77430;SDS011;66498;48.564;19.272;2023-01-01T06:45:46;99.68;;;30.38;;
77430;SDS011;66498;48.564;19.272;2023-01-01T06:48:12;94.07;;;29.52;;
77430;SDS011;66498;48.564;19.272;2023-01-01T06:50:37;72.18;;;29.50;;
77430;SDS011;66498;48.564;19.272;2023-01-01T06:53:02;91.68;;;32.15;;
77430;SDS011;66498;48.564;19.272;2023-01-01T06:55:28;99.25;;;32.58;;
77430;SDS011;66498;48.564;19.272;2023-01-01T06:57:53;107.85;;;35.25;;
77430;SDS011;66498;48.564;19.272;2023-01-01T07:00:19;107.85;;;31.63;;
77430;SDS011;66498;48.564;19.272;2023-01-01T07:02:46;76.53;;;31.63;;
77430;SDS011;66498;48.564;19.272;2023-01-01T07:05:12;82.43;;;31.88;;
77430;SDS011;66498;48.564;19.272;2023-01-01T07:07:38;96.13;;;31.27;;
77430;SDS011;66498;48.564;19.272;2023-01-01T07:10:03;93.07;;;31.90;;
77430;SDS011;66498;48.564;19.272;2023-01-01T07:12:29;103.22;;;32.80;;
77430;SDS011;66498;48.564;19.272;2023-01-01T07:14:55;73.50;;;32.13;;
77430;SDS011;66498;48.564;19.272;2023-01-01T07:17:20;120.60;;;32.28;;
77430;SDS011;66498;48.564;19.272;2023-01-01T07:19:46;117.50;;;34.38;;
77430;SDS011;66498;48.564;19.272;2023-01-01T07:22:11;73.90;;;31.90;;
77430;SDS011;66498;48.564;19.272;2023-01-01T07:24:37;99.72;;;30.38;;
77430;SDS011;66498;48.564;19.272;2023-01-01T07:27:03;74.82;;;29.38;;
77430;SDS011;66498;48.564;19.272;2023-01-01T07:29:29;82.53;;;28.75;;
77430;SDS011;66498;48.564;19.272;2023-01-01T07:31:54;92.70;;;30.23;;
77430;SDS011;66498;48.564;19.272;2023-01-01T07:34:20;82.88;;;29.23;;
77430;SDS011;66498;48.564;19.272;2023-01-01T07:36:47;94.47;;;31.35;;
77430;SDS011;66498;48.564;19.272;2023-01-01T07:39:13;90.70;;;32.42;;
77430;SDS011;66498;48.564;19.272;2023-01-01T07:41:39;77.30;;;31.98;;
77430;SDS011;66498;48.564;19.272;2023-01-01T07:44:04;88.97;;;32.83;;
77430;SDS011;66498;48.564;19.272;2023-01-01T07:46:32;72.75;;;31.88;;
77430;SDS011;66498;48.564;19.272;2023-01-01T07:48:59;108.15;;;32.75;;
77430;SDS011;66498;48.564;19.272;2023-01-01T07:51:24;97.43;;;29.48;;
77430;SDS011;66498;48.564;19.272;2023-01-01T07:53:50;106.10;;;30.75;;
77430;SDS011;66498;48.564;19.272;2023-01-01T07:56:15;90.35;;;31.13;;
77430;SDS011;66498;48.564;19.272;2023-01-01T07:58:41;106.28;;;32.88;;
77430;SDS011;66498;48.564;19.272;2023-01-01T08:01:11;80.30;;;31.23;;
77430;SDS011;66498;48.564;19.272;2023-01-01T08:03:38;89.38;;;30.88;;
77430;SDS011;66498;48.564;19.272;2023-01-01T08:06:06;88.50;;;31.08;;
77430;SDS011;66498;48.564;19.272;2023-01-01T08:08:37;70.72;;;30.63;;
77430;SDS011;66498;48.564;19.272;2023-01-01T08:11:03;68.75;;;30.55;;
77430;SDS011;66498;48.564;19.272;2023-01-01T08:13:29;67.28;;;30.35;;
77430;SDS011;66498;48.564;19.272;2023-01-01T08:15:56;64.90;;;27.30;;
77430;SDS011;66498;48.564;19.272;2023-01-01T08:18:22;53.08;;;26.35;;
77430;SDS011;66498;48.564;19.272;2023-01-01T08:20:48;54.50;;;26.92;;
77430;SDS011;66498;48.564;19.272;2023-01-01T08:23:13;54.75;;;27.67;;
77430;SDS011;66498;48.564;19.272;2023-01-01T08:25:39;52.72;;;25.90;;
77430;SDS011;66498;48.564;19.272;2023-01-01T08:28:05;56.15;;;25.20;;
77430;SDS011;66498;48.564;19.272;2023-01-01T08:30:30;56.58;;;26.15;;
77430;SDS011;66498;48.564;19.272;2023-01-01T08:32:56;74.25;;;25.02;;
77430;SDS011;66498;48.564;19.272;2023-01-01T08:35:22;57.58;;;27.35;;
77430;SDS011;66498;48.564;19.272;2023-01-01T08:37:48;62.08;;;25.45;;
77430;SDS011;66498;48.564;19.272;2023-01-01T08:40:14;51.88;;;23.50;;
77430;SDS011;66498;48.564;19.272;2023-01-01T08:42:39;54.90;;;25.50;;
77430;SDS011;66498;48.564;19.272;2023-01-01T08:45:05;48.95;;;25.30;;
77430;SDS011;66498;48.564;19.272;2023-01-01T08:47:34;62.65;;;25.20;;
77430;SDS011;66498;48.564;19.272;2023-01-01T08:50:00;47.20;;;24.58;;
77430;SDS011;66498;48.564;19.272;2023-01-01T08:52:25;34.47;;;18.70;;
77430;SDS011;66498;48.564;19.272;2023-01-01T08:54:51;42.95;;;22.02;;
77430;SDS011;66498;48.564;19.272;2023-01-01T08:57:17;63.20;;;22.30;;
77430;SDS011;66498;48.564;19.272;2023-01-01T08:59:42;48.30;;;20.80;;
77430;SDS011;66498;48.564;19.272;2023-01-01T09:02:08;53.13;;;20.98;;
77430;SDS011;66498;48.564;19.272;2023-01-01T09:04:35;51.40;;;21.00;;
77430;SDS011;66498;48.564;19.272;2023-01-01T09:07:01;48.25;;;19.38;;
77430;SDS011;66498;48.564;19.272;2023-01-01T09:09:26;56.50;;;21.33;;
77430;SDS011;66498;48.564;19.272;2023-01-01T09:11:54;54.63;;;22.98;;
77430;SDS011;66498;48.564;19.272;2023-01-01T09:14:21;76.15;;;26.58;;
77430;SDS011;66498;48.564;19.272;2023-01-01T09:16:47;82.22;;;23.35;;
77430;SDS011;66498;48.564;19.272;2023-01-01T09:19:13;62.30;;;24.40;;
77430;SDS011;66498;48.564;19.272;2023-01-01T09:21:39;78.65;;;28.10;;
77430;SDS011;66498;48.564;19.272;2023-01-01T09:24:06;65.18;;;24.10;;
77430;SDS011;66498;48.564;19.272;2023-01-01T09:26:31;72.55;;;26.48;;
77430;SDS011;66498;48.564;19.272;2023-01-01T09:28:57;72.18;;;25.90;;
77430;SDS011;66498;48.564;19.272;2023-01-01T09:31:23;89.53;;;27.27;;
77430;SDS011;66498;48.564;19.272;2023-01-01T09:33:48;77.28;;;27.38;;
77430;SDS011;66498;48.564;19.272;2023-01-01T09:38:49;71.18;;;26.60;;
77430;SDS011;66498;48.564;19.272;2023-01-01T09:41:24;56.97;;;25.25;;
77430;SDS011;66498;48.564;19.272;2023-01-01T09:44:08;82.70;;;27.77;;
77430;SDS011;66498;48.564;19.272;2023-01-01T09:46:43;62.03;;;25.60;;
77430;SDS011;66498;48.564;19.272;2023-01-01T09:49:11;58.03;;;24.80;;
77430;SDS011;66498;48.564;19.272;2023-01-01T09:51:42;51.65;;;23.77;;
77430;SDS011;66498;48.564;19.272;2023-01-01T09:54:26;51.58;;;24.10;;
77430;SDS011;66498;48.564;19.272;2023-01-01T09:56:55;48.67;;;23.48;;
77430;SDS011;66498;48.564;19.272;2023-01-01T09:59:22;49.53;;;24.85;;
77430;SDS011;66498;48.564;19.272;2023-01-01T10:01:52;60.10;;;25.58;;
77430;SDS011;66498;48.564;19.272;2023-01-01T10:09:58;68.80;;;28.08;;
77430;SDS011;66498;48.564;19.272;2023-01-01T10:12:41;56.47;;;27.95;;
77430;SDS011;66498;48.564;19.272;2023-01-01T10:15:27;57.40;;;28.77;;
77430;SDS011;66498;48.564;19.272;2023-01-01T10:17:57;69.18;;;31.02;;
77430;SDS011;66498;48.564;19.272;2023-01-01T10:20:41;76.90;;;32.83;;
77430;SDS011;66498;48.564;19.272;2023-01-01T10:23:20;64.15;;;30.95;;
77430;SDS011;66498;48.564;19.272;2023-01-01T10:25:49;86.25;;;42.22;;
77430;SDS011;66498;48.564;19.272;2023-01-01T10:31:33;79.25;;;31.83;;
77430;SDS011;66498;48.564;19.272;2023-01-01T10:34:18;63.08;;;29.45;;
77430;SDS011;66498;48.564;19.272;2023-01-01T10:36:47;70.60;;;31.05;;
77430;SDS011;66498;48.564;19.272;2023-01-01T10:39:17;68.70;;;33.53;;
77430;SDS011;66498;48.564;19.272;2023-01-01T10:41:43;61.55;;;29.45;;
77430;SDS011;66498;48.564;19.272;2023-01-01T10:44:13;56.25;;;28.70;;
77430;SDS011;66498;48.564;19.272;2023-01-01T10:46:43;61.65;;;30.40;;
77430;SDS011;66498;48.564;19.272;2023-01-01T10:49:14;102.53;;;42.28;;
77430;SDS011;66498;48.564;19.272;2023-01-01T10:51:41;109.43;;;48.50;;
77430;SDS011;66498;48.564;19.272;2023-01-01T10:54:53;66.55;;;31.10;;
77430;SDS011;66498;48.564;19.272;2023-01-01T11:11:54;52.45;;;25.60;;
77430;SDS011;66498;48.564;19.272;2023-01-01T11:14:47;60.47;;;31.42;;
77430;SDS011;66498;48.564;19.272;2023-01-01T11:17:37;69.88;;;32.45;;
77430;SDS011;66498;48.564;19.272;2023-01-01T11:20:28;63.72;;;30.05;;
77430;SDS011;66498;48.564;19.272;2023-01-01T11:22:54;53.08;;;27.40;;
77430;SDS011;66498;48.564;19.272;2023-01-01T11:25:25;53.90;;;27.25;;
77430;SDS011;66498;48.564;19.272;2023-01-01T11:30:40;55.10;;;26.85;;
77430;SDS011;66498;48.564;19.272;2023-01-01T11:33:12;54.55;;;25.85;;
77430;SDS011;66498;48.564;19.272;2023-01-01T11:35:47;40.75;;;21.45;;
77430;SDS011;66498;48.564;19.272;2023-01-01T11:38:17;43.78;;;22.73;;
77430;SDS011;66498;48.564;19.272;2023-01-01T11:40:45;39.63;;;20.50;;
77430;SDS011;66498;48.564;19.272;2023-01-01T11:43:21;41.60;;;19.70;;
77430;SDS011;66498;48.564;19.272;2023-01-01T11:45:49;37.75;;;19.00;;
77430;SDS011;66498;48.564;19.272;2023-01-01T11:48:18;31.38;;;16.52;;
77430;SDS011;66498;48.564;19.272;2023-01-01T11:50:48;39.88;;;20.10;;
77430;SDS011;66498;48.564;19.272;2023-01-01T11:53:18;39.03;;;21.23;;
77430;SDS011;66498;48.564;19.272;2023-01-01T11:56:05;41.28;;;21.58;;
77430;SDS011;66498;48.564;19.272;2023-01-01T11:58:39;42.97;;;20.63;;
77430;SDS011;66498;48.564;19.272;2023-01-01T12:01:16;42.90;;;20.15;;
77430;SDS011;66498;48.564;19.272;2023-01-01T12:03:57;41.83;;;21.02;;
77430;SDS011;66498;48.564;19.272;2023-01-01T12:06:37;58.95;;;30.40;;
77430;SDS011;66498;48.564;19.272;2023-01-01T12:14:39;67.55;;;33.78;;
77430;SDS011;66498;48.564;19.272;2023-01-01T12:17:08;44.92;;;22.70;;
77430;SDS011;66498;48.564;19.272;2023-01-01T12:22:16;56.67;;;27.75;;
77430;SDS011;66498;48.564;19.272;2023-01-01T12:24:43;51.67;;;24.35;;
77430;SDS011;66498;48.564;19.272;2023-01-01T12:43:02;47.95;;;21.70;;
77430;SDS011;66498;48.564;19.272;2023-01-01T12:45:40;44.92;;;21.23;;
77430;SDS011;66498;48.564;19.272;2023-01-01T12:48:40;45.20;;;21.63;;
77430;SDS011;66498;48.564;19.272;2023-01-01T12:51:59;45.83;;;21.23;;
77430;SDS011;66498;48.564;19.272;2023-01-01T12:59:52;49.75;;;23.80;;
77430;SDS011;66498;48.564;19.272;2023-01-01T13:02:23;51.05;;;24.48;;
77430;SDS011;66498;48.564;19.272;2023-01-01T13:04:56;47.85;;;22.90;;
77430;SDS011;66498;48.564;19.272;2023-01-01T13:07:41;45.53;;;22.63;;
77430;SDS011;66498;48.564;19.272;2023-01-01T13:12:59;41.35;;;21.35;;
77430;SDS011;66498;48.564;19.272;2023-01-01T13:18:05;46.03;;;21.80;;
77430;SDS011;66498;48.564;19.272;2023-01-01T13:20:35;43.20;;;22.17;;
77430;SDS011;66498;48.564;19.272;2023-01-01T13:23:48;46.03;;;22.17;;
77430;SDS011;66498;48.564;19.272;2023-01-01T13:26:47;47.50;;;22.30;;
77430;SDS011;66498;48.564;19.272;2023-01-01T13:39:53;48.10;;;23.23;;
77430;SDS011;66498;48.564;19.272;2023-01-01T13:45:11;43.15;;;22.23;;
77430;SDS011;66498;48.564;19.272;2023-01-01T13:47:58;40.47;;;21.08;;
77430;SDS011;66498;48.564;19.272;2023-01-01T14:02:11;40.00;;;22.15;;
77430;SDS011;66498;48.564;19.272;2023-01-01T14:04:56;41.67;;;23.63;;
77430;SDS011;66498;48.564;19.272;2023-01-01T14:13:37;47.28;;;27.65;;
77430;SDS011;66498;48.564;19.272;2023-01-01T14:16:07;112.00;;;61.63;;
77430;SDS011;66498;48.564;19.272;2023-01-01T14:18:48;46.70;;;26.92;;
77430;SDS011;66498;48.564;19.272;2023-01-01T14:21:17;46.13;;;24.50;;
77430;SDS011;66498;48.564;19.272;2023-01-01T14:23:50;43.88;;;22.10;;
77430;SDS011;66498;48.564;19.272;2023-01-01T14:26:22;39.92;;;21.15;;
77430;SDS011;66498;48.564;19.272;2023-01-01T14:28:56;40.17;;;22.27;;
77430;SDS011;66498;48.564;19.272;2023-01-01T14:31:27;38.08;;;21.77;;
77430;SDS011;66498;48.564;19.272;2023-01-01T14:33:55;37.20;;;21.50;;
77430;SDS011;66498;48.564;19.272;2023-01-01T14:36:25;44.33;;;23.23;;
77430;SDS011;66498;48.564;19.272;2023-01-01T14:38:55;48.03;;;27.67;;
77430;SDS011;66498;48.564;19.272;2023-01-01T14:44:02;51.70;;;29.10;;
77430;SDS011;66498;48.564;19.272;2023-01-01T14:46:31;54.40;;;30.63;;
77430;SDS011;66498;48.564;19.272;2023-01-01T14:48:59;76.88;;;39.15;;
77430;SDS011;66498;48.564;19.272;2023-01-01T14:51:28;69.50;;;37.50;;
77430;SDS011;66498;48.564;19.272;2023-01-01T14:53:59;69.93;;;38.45;;
77430;SDS011;66498;48.564;19.272;2023-01-01T14:56:31;70.10;;;38.03;;
77430;SDS011;66498;48.564;19.272;2023-01-01T15:04:28;59.63;;;32.65;;
77430;SDS011;66498;48.564;19.272;2023-01-01T15:06:58;56.75;;;32.17;;
77430;SDS011;66498;48.564;19.272;2023-01-01T15:09:27;54.75;;;30.08;;
77430;SDS011;66498;48.564;19.272;2023-01-01T15:11:55;48.70;;;27.92;;
77430;SDS011;66498;48.564;19.272;2023-01-01T15:14:27;52.97;;;29.60;;
77430;SDS011;66498;48.564;19.272;2023-01-01T15:17:03;52.95;;;30.15;;
77430;SDS011;66498;48.564;19.272;2023-01-01T15:19:32;54.28;;;28.90;;
77430;SDS011;66498;48.564;19.272;2023-01-01T15:21:59;51.15;;;29.17;;
77430;SDS011;66498;48.564;19.272;2023-01-01T15:24:26;49.88;;;28.02;;
77430;SDS011;66498;48.564;19.272;2023-01-01T15:26:57;44.17;;;26.92;;
77430;SDS011;66498;48.564;19.272;2023-01-01T15:32:06;49.67;;;28.15;;
77430;SDS011;66498;48.564;19.272;2023-01-01T15:34:36;45.13;;;27.42;;
77430;SDS011;66498;48.564;19.272;2023-01-01T15:42:21;51.58;;;32.35;;
77430;SDS011;66498;48.564;19.272;2023-01-01T15:44:48;54.22;;;34.65;;
77430;SDS011;66498;48.564;19.272;2023-01-01T15:47:14;61.05;;;36.00;;
77430;SDS011;66498;48.564;19.272;2023-01-01T15:49:41;49.03;;;28.42;;
77430;SDS011;66498;48.564;19.272;2023-01-01T15:52:21;58.63;;;35.10;;
77430;SDS011;66498;48.564;19.272;2023-01-01T15:54:51;56.35;;;33.17;;
77430;SDS011;66498;48.564;19.272;2023-01-01T15:57:18;56.38;;;34.33;;
77430;SDS011;66498;48.564;19.272;2023-01-01T15:59:46;55.28;;;34.88;;
77430;SDS011;66498;48.564;19.272;2023-01-01T16:04:43;57.67;;;33.45;;
77430;SDS011;66498;48.564;19.272;2023-01-01T16:07:18;63.72;;;37.63;;
77430;SDS011;66498;48.564;19.272;2023-01-01T16:09:47;57.15;;;33.20;;
77430;SDS011;66498;48.564;19.272;2023-01-01T16:12:16;49.28;;;30.13;;
77430;SDS011;66498;48.564;19.272;2023-01-01T16:14:43;53.67;;;31.73;;
77430;SDS011;66498;48.564;19.272;2023-01-01T16:17:12;50.45;;;28.48;;
77430;SDS011;66498;48.564;19.272;2023-01-01T16:19:40;49.75;;;27.17;;
77430;SDS011;66498;48.564;19.272;2023-01-01T16:22:10;46.08;;;25.25;;
77430;SDS011;66498;48.564;19.272;2023-01-01T16:24:40;46.92;;;25.10;;
77430;SDS011;66498;48.564;19.272;2023-01-01T16:27:07;140.93;;;69.97;;
77430;SDS011;66498;48.564;19.272;2023-01-01T16:29:32;129.07;;;62.13;;
77430;SDS011;66498;48.564;19.272;2023-01-01T16:31:58;84.68;;;41.35;;
77430;SDS011;66498;48.564;19.272;2023-01-01T16:34:24;64.45;;;32.80;;
77430;SDS011;66498;48.564;19.272;2023-01-01T16:36:50;58.30;;;28.92;;